createdAt,value
2023-03-06T00:01:18.536Z,100378.91
2023-03-06T00:11:20.615Z,100372.03
2023-03-06T00:21:22.056Z,100363.41
2023-03-06T00:31:23.906Z,100354.03
2023-03-06T00:41:25.443Z,100341.28
2023-03-06T00:51:27.463Z,100328.47
2023-03-06T01:01:29.533Z,100321.59
2023-03-06T01:11:31.590Z,100302.81
2023-03-06T01:21:33.042Z,100303.53
2023-03-06T01:31:34.449Z,100289.00
2023-03-06T01:41:36.371Z,100281.25
2023-03-06T01:51:44.007Z,100276.03
2023-03-06T02:01:46.671Z,100269.97
2023-03-06T02:11:48.073Z,100261.41
2023-03-06T02:21:49.830Z,100256.28
2023-03-06T02:31:51.364Z,100237.44
2023-03-06T02:41:52.778Z,100236.59
2023-03-06T02:51:55.215Z,100220.31
2023-03-06T03:01:56.742Z,100199.94
2023-03-06T03:11:58.077Z,100187.06
2023-03-06T03:21:59.668Z,100197.22
2023-03-06T03:32:01.279Z,100201.41
2023-03-06T03:42:02.686Z,100193.72
2023-03-06T03:52:04.308Z,100197.06
2023-03-06T04:02:05.843Z,100182.50
2023-03-06T04:12:07.866Z,100177.25
2023-03-06T04:22:09.404Z,100156.78
2023-03-06T04:32:11.093Z,100147.31
2023-03-06T04:42:12.944Z,100130.97
2023-03-06T04:52:14.447Z,100121.50
2023-03-06T05:02:16.881Z,100127.47
2023-03-06T05:12:18.381Z,100128.94
2023-03-06T05:22:19.913Z,100118.72
2023-03-06T05:32:21.958Z,100122.78
2023-03-06T05:42:23.608Z,100114.94
2023-03-06T05:52:25.072Z,100106.38
2023-03-06T06:02:26.591Z,100108.06
2023-03-06T06:12:28.233Z,100106.28
2023-03-06T06:22:29.757Z,100100.41
2023-03-06T06:32:31.321Z,100098.63
2023-03-06T06:42:39.088Z,100098.66
2023-03-06T06:52:41.417Z,100091.88
2023-03-06T07:02:42.984Z,100093.63
2023-03-06T07:12:44.412Z,100090.28
2023-03-06T07:22:51.200Z,100096.34
2023-03-06T07:32:55.490Z,100097.38
2023-03-06T07:43:06.225Z,100092.47
2023-03-06T07:53:11.625Z,100082.34
2023-03-06T08:03:13.752Z,100087.56
2023-03-06T08:13:15.187Z,100085.16
2023-03-06T08:23:16.623Z,100095.41
2023-03-06T08:33:18.039Z,100102.28
2023-03-06T08:43:19.423Z,100106.44
2023-03-06T08:53:22.698Z,100100.50
2023-03-06T09:03:30.903Z,100088.69
2023-03-06T09:13:32.258Z,100086.25
2023-03-06T09:23:34.148Z,100104.19
2023-03-06T09:33:35.562Z,100103.38
2023-03-06T09:43:39.036Z,100102.63
2023-03-06T09:53:56.745Z,100100.13
2023-03-06T10:04:30.635Z,100105.31
2023-03-06T10:14:34.886Z,100107.06
2023-03-06T10:24:47.342Z,100101.28
2023-03-06T10:34:50.058Z,100101.56
2023-03-06T10:45:10.901Z,100100.00
2023-03-06T10:55:23.708Z,100106.97
2023-03-06T11:05:25.150Z,100106.22
2023-03-06T11:15:28.207Z,100101.25
2023-03-06T11:25:55.089Z,100102.22
2023-03-06T11:36:05.306Z,100089.66
2023-03-06T11:46:28.867Z,100075.16
2023-03-06T11:57:01.738Z,100083.69
2023-03-06T12:07:22.236Z,100056.44
2023-03-06T12:17:29.459Z,100057.47
2023-03-06T12:27:58.150Z,100043.03
2023-03-06T12:38:22.517Z,100031.13
2023-03-06T12:48:29.427Z,100019.13
2023-03-06T12:58:31.374Z,100013.25
2023-03-06T13:08:57.671Z,100006.47
2023-03-06T13:19:18.285Z,99998.94
2023-03-06T13:29:38.201Z,100001.50
2023-03-06T13:39:54.715Z,99992.94
2023-03-06T13:49:57.275Z,99984.41
2023-03-06T14:00:14.484Z,99982.72
2023-03-06T14:10:21.305Z,99975.84
2023-03-06T14:20:33.265Z,99952.75
2023-03-06T14:30:34.807Z,99944.19
2023-03-06T14:40:42.930Z,99945.06
2023-03-06T14:50:56.075Z,99936.53
2023-03-06T15:01:02.208Z,99927.91
2023-03-06T15:11:05.747Z,99938.22
2023-03-06T15:21:21.851Z,99936.50
2023-03-06T15:31:27.738Z,99926.19
2023-03-06T15:41:37.711Z,99907.38
2023-03-06T15:51:39.156Z,99909.06
2023-03-06T16:01:40.638Z,99899.66
2023-03-06T16:11:44.881Z,99885.94
2023-03-06T16:21:46.539Z,99886.78
2023-03-06T16:31:48.289Z,99898.72
2023-03-06T16:41:50.593Z,99896.97
2023-03-06T16:51:53.029Z,99884.94
2023-03-06T17:01:54.540Z,99888.34
2023-03-06T17:11:56.080Z,99872.06
2023-03-06T17:21:57.815Z,99866.03
2023-03-06T17:31:59.362Z,99867.69
2023-03-06T17:42:03.214Z,99864.22
2023-03-06T17:52:05.848Z,99861.66
2023-03-06T18:02:07.414Z,99856.47
2023-03-06T18:12:09.202Z,99847.84
2023-03-06T18:22:10.754Z,99828.19
2023-03-06T18:32:12.277Z,99817.94
2023-03-06T18:42:14.027Z,99820.44
2023-03-06T18:52:15.535Z,99802.47
2023-03-06T19:02:17.053Z,99794.78
2023-03-06T19:12:18.604Z,99783.69
2023-03-06T19:22:19.999Z,99768.31
2023-03-06T19:32:22.282Z,99774.22
2023-03-06T19:42:23.986Z,99759.69
2023-03-06T19:52:25.798Z,99736.66
2023-03-06T20:02:27.866Z,99716.06
2023-03-06T20:12:29.535Z,99693.00
2023-03-06T20:22:30.918Z,99673.41
2023-03-06T20:32:33.180Z,99670.81
2023-03-06T20:42:34.681Z,99659.69
2023-03-06T20:52:36.324Z,99648.59
2023-03-06T21:02:37.791Z,99636.63
2023-03-06T21:12:39.215Z,99627.25
2023-03-06T21:22:40.632Z,99617.00
2023-03-06T21:32:42.110Z,99602.47
2023-03-06T21:42:43.521Z,99581.13
2023-03-06T21:52:44.998Z,99564.84
2023-03-06T22:02:47.055Z,99552.78
2023-03-06T22:12:48.420Z,99524.66
2023-03-06T22:22:49.885Z,99499.00
2023-03-06T22:32:53.180Z,99492.22
2023-03-06T22:42:54.726Z,99482.81
2023-03-06T22:52:56.056Z,99470.03
2023-03-06T23:02:57.505Z,99467.47
2023-03-06T23:12:59.727Z,99453.84
2023-03-06T23:23:01.194Z,99448.72
2023-03-06T23:33:02.647Z,99434.25
2023-03-06T23:43:04.171Z,99432.56
2023-03-06T23:53:05.658Z,99414.63
